^^
Meteo Knjazevac Station Historical Data
Daily Summary for February 13, 2021 Units:  Metric    English   Both
Daily Weekly Monthly Yearly Custom
  High: Low: Average:
Temperature: 12.9 °C 4.2 °C 8.4 °C
Dew Point: 9.2 °C 4.1 °C 6.8 °C
Humidity: 99% 74% 90%
Wind Speed: 12.9km/h 0km/h 4.2km/h
Wind Gust: 22.5km/h - -
Wind- - SW
Pressure: 1022.2 hPa 1016.1 hPa -
Precipitation: 0 mm    
Historical Graphs
 
 
Tabular Data for February 13, 2021
Time Temperature Dew Point Pressure Wind Wind Speed Wind Gust Humidity Rainfall Rate (Hourly) solar Conditions
00:00 8.3 °C 8.2 °C 1016.8 hPa WSW 4.8 km/h 9.7 km/h 99% 0 mm 0 W/m2
00:10 8.2 °C 8.1 °C 1016.5 hPa SW 4.8 km/h 8 km/h 99% 0 mm 0 W/m2
00:20 8.1 °C 7.9 °C 1016.5 hPa SW 3.2 km/h 9.7 km/h 99% 0 mm 0 W/m2
00:30 7.9 °C 7.8 °C 1016.5 hPa WSW 3.2 km/h 8 km/h 99% 0 mm 0 W/m2
00:40 7.8 °C 7.7 °C 1016.5 hPa WSW 3.2 km/h 8 km/h 99% 0 mm 0 W/m2
00:50 7.7 °C 7.6 °C 1016.5 hPa West 1.6 km/h 6.4 km/h 99% 0 mm 0 W/m2
01:00 7.6 °C 7.4 °C 1016.8 hPa Calm   4.8 km/h 99% 0 mm 0 W/m2
01:10 7.4 °C 7.3 °C 1016.8 hPa Calm   1.6 km/h 99% 0 mm 0 W/m2
01:20 7.3 °C 7.1 °C 1016.8 hPa SSE 1.6 km/h 4.8 km/h 99% 0 mm 0 W/m2
01:30 7 °C 6.8 °C 1016.5 hPa SW 3.2 km/h 4.8 km/h 99% 0 mm 0 W/m2
01:40 6.9 °C 6.8 °C 1016.5 hPa Calm   3.2 km/h 99% 0 mm 0 W/m2
01:50 6.7 °C 6.6 °C 1016.5 hPa Calm   3.2 km/h 99% 0 mm 0 W/m2
02:00 6.6 °C 6.4 °C 1016.5 hPa Calm   3.2 km/h 99% 0 mm 0 W/m2
02:10 6.4 °C 6.3 °C 1016.5 hPa SSW 1.6 km/h 4.8 km/h 99% 0 mm 0 W/m2
02:20 6.3 °C 6.2 °C 1016.5 hPa Calm   4.8 km/h 99% 0 mm 0 W/m2
02:30 6.2 °C 6.1 °C 1016.5 hPa Calm   3.2 km/h 99% 0 mm 0 W/m2
02:40 6.1 °C 5.9 °C 1016.5 hPa ESE 1.6 km/h 3.2 km/h 99% 0 mm 0 W/m2
02:50 6 °C 5.8 °C 1016.1 hPa East 3.2 km/h 6.4 km/h 99% 0 mm 0 W/m2
03:00 6 °C 5.8 °C 1016.1 hPa ENE 3.2 km/h 6.4 km/h 99% 0 mm 0 W/m2
03:10 5.9 °C 5.8 °C 1016.1 hPa NNE 3.2 km/h 4.8 km/h 99% 0 mm 0 W/m2
03:20 5.8 °C 5.7 °C 1016.1 hPa Calm   4.8 km/h 99% 0 mm 0 W/m2
03:30 5.7 °C 5.6 °C 1016.5 hPa North 1.6 km/h 3.2 km/h 99% 0 mm 0 W/m2
03:40 5.6 °C 5.4 °C 1016.5 hPa NNE 3.2 km/h 4.8 km/h 99% 0 mm 0 W/m2
03:50 5.4 °C 5.3 °C 1016.5 hPa NNE 1.6 km/h 4.8 km/h 99% 0 mm 0 W/m2
04:00 5.3 °C 5.2 °C 1016.5 hPa Calm   3.2 km/h 99% 0 mm 0 W/m2
04:10 5.1 °C 4.9 °C 1016.5 hPa NW 1.6 km/h 3.2 km/h 99% 0 mm 0 W/m2
04:20 5 °C 4.8 °C 1016.5 hPa North 1.6 km/h 3.2 km/h 99% 0 mm 0 W/m2
04:30 4.9 °C 4.8 °C 1016.5 hPa SW 1.6 km/h 4.8 km/h 99% 0 mm 0 W/m2
04:40 4.9 °C 4.7 °C 1016.5 hPa Calm   4.8 km/h 99% 0 mm 0 W/m2
04:50 4.8 °C 4.7 °C 1016.8 hPa WSW 1.6 km/h 6.4 km/h 99% 0 mm 0 W/m2
05:00 4.8 °C 4.7 °C 1016.5 hPa Calm   3.2 km/h 99% 0 mm 0 W/m2
05:10 4.8 °C 4.7 °C 1016.8 hPa SE 3.2 km/h 6.4 km/h 99% 0 mm 0 W/m2
05:20 4.9 °C 4.8 °C 1016.8 hPa ESE 3.2 km/h 6.4 km/h 99% 0 mm 0 W/m2
05:30 4.8 °C 4.7 °C 1016.8 hPa NW 1.6 km/h 8 km/h 99% 0 mm 0 W/m2
05:40 4.8 °C 4.6 °C 1016.8 hPa Calm   3.2 km/h 99% 0 mm 0 W/m2
05:50 4.7 °C 4.6 °C 1016.8 hPa North 1.6 km/h 6.4 km/h 99% 0 mm 0 W/m2
06:00 4.6 °C 4.4 °C 1016.8 hPa Calm   4.8 km/h 99% 0 mm 0 W/m2
06:10 4.5 °C 4.3 °C 1016.8 hPa Calm   4.8 km/h 99% 0 mm 0 W/m2
06:20 4.3 °C 4.1 °C 1016.8 hPa Calm   3.2 km/h 99% 0 mm 0 W/m2
06:30 4.2 °C 4.1 °C 1016.8 hPa NNW 1.6 km/h 3.2 km/h 99% 0 mm 0 W/m2
06:40 4.3 °C 4.2 °C 1016.8 hPa WNW 1.6 km/h 4.8 km/h 99% 0 mm 0 W/m2
06:50 4.3 °C 4.2 °C 1016.8 hPa NNW 1.6 km/h 4.8 km/h 99% 0 mm 6 W/m2
07:00 4.3 °C 4.2 °C 1017.2 hPa Calm   4.8 km/h 99% 0 mm 16 W/m2
07:10 4.3 °C 4.2 °C 1017.2 hPa NE 1.6 km/h 4.8 km/h 99% 0 mm 30 W/m2
07:20 4.5 °C 4.3 °C 1017.2 hPa South 1.6 km/h 4.8 km/h 99% 0 mm 49 W/m2
07:30 4.8 °C 4.7 °C 1017.2 hPa SSE 3.2 km/h 9.7 km/h 99% 0 mm 56 W/m2
07:40 4.8 °C 4.7 °C 1017.5 hPa Calm   3.2 km/h 99% 0 mm 55 W/m2
07:50 4.9 °C 4.8 °C 1017.5 hPa Calm   6.4 km/h 99% 0 mm 55 W/m2
08:00 5.1 °C 4.9 °C 1017.5 hPa SW 3.2 km/h 6.4 km/h 99% 0 mm 66 W/m2
08:10 5.4 °C 5.3 °C 1017.5 hPa SE 3.2 km/h 6.4 km/h 99% 0 mm 94 W/m2
08:20 5.7 °C 5.6 °C 1017.8 hPa Calm   6.4 km/h 99% 0 mm 112 W/m2
08:30 6.1 °C 5.9 °C 1017.8 hPa SSW 3.2 km/h 4.8 km/h 99% 0 mm 156 W/m2
08:40 6.4 °C 6.3 °C 1017.8 hPa WSW 1.6 km/h 4.8 km/h 99% 0 mm 212 W/m2
08:50 7.1 °C 6.9 °C 1017.8 hPa SW 3.2 km/h 8 km/h 99% 0 mm 227 W/m2
09:00 7.7 °C 7.6 °C 1017.8 hPa SSW 3.2 km/h 8 km/h 99% 0 mm 202 W/m2
09:10 8.2 °C 8.1 °C 1017.8 hPa SSW 4.8 km/h 9.7 km/h 99% 0 mm 223 W/m2
09:20 8.6 °C 8.4 °C 1017.8 hPa South 3.2 km/h 9.7 km/h 99% 0 mm 261 W/m2
09:30 8.9 °C 8.6 °C 1017.8 hPa SW 1.6 km/h 4.8 km/h 98% 0 mm 339 W/m2
09:40 9.4 °C 8.8 °C 1017.8 hPa WSW 1.6 km/h 8 km/h 96% 0 mm 210 W/m2
09:50 9.8 °C 8.9 °C 1017.8 hPa South 3.2 km/h 8 km/h 94% 0 mm 244 W/m2
10:00 10 °C 8.6 °C 1017.8 hPa SSW 3.2 km/h 8 km/h 91% 0 mm 464 W/m2
10:10 10.6 °C 9.2 °C 1017.8 hPa WSW 3.2 km/h 6.4 km/h 91% 0 mm 270 W/m2
10:20 11 °C 9.1 °C 1017.8 hPa WSW 8 km/h 12.9 km/h 88% 0 mm 253 W/m2
10:30 11 °C 8.6 °C 1018.2 hPa West 8 km/h 16.1 km/h 85% 0 mm 490 W/m2
10:40 11.2 °C 8.6 °C 1018.2 hPa West 9.7 km/h 19.3 km/h 84% 0 mm 420 W/m2
10:50 11.3 °C 8.4 °C 1018.2 hPa WSW 8 km/h 16.1 km/h 82% 0 mm 253 W/m2
11:00 11.3 °C 8.5 °C 1017.8 hPa WSW 4.8 km/h 16.1 km/h 83% 0 mm 250 W/m2
11:10 11.4 °C 8.8 °C 1017.8 hPa WSW 4.8 km/h 16.1 km/h 84% 0 mm 353 W/m2
11:20 11.7 °C 8.8 °C 1018.2 hPa SW 4.8 km/h 11.3 km/h 83% 0 mm 376 W/m2
11:30 11.7 °C 8.4 °C 1017.8 hPa West 9.7 km/h 14.5 km/h 80% 0 mm 218 W/m2
11:40 11.7 °C 8.6 °C 1017.8 hPa West 9.7 km/h 17.7 km/h 81% 0 mm 318 W/m2
11:50 11.6 °C 8.6 °C 1017.8 hPa West 9.7 km/h 19.3 km/h 82% 0 mm 301 W/m2
12:00 11.6 °C 8.8 °C 1017.8 hPa WSW 9.7 km/h 19.3 km/h 83% 0 mm 279 W/m2
12:10 11.7 °C 8.8 °C 1017.8 hPa West 8 km/h 16.1 km/h 82% 0 mm 604 W/m2
12:20 11.9 °C 8.7 °C 1018.2 hPa WSW 9.7 km/h 20.9 km/h 81% 0 mm 366 W/m2
12:30 11.8 °C 8.5 °C 1017.8 hPa WSW 9.7 km/h 20.9 km/h 80% 0 mm 303 W/m2
12:40 11.8 °C 8.4 °C 1017.8 hPa WSW 12.9 km/h 22.5 km/h 80% 0 mm 309 W/m2
12:50 11.9 °C 8.6 °C 1017.8 hPa WSW 8 km/h 20.9 km/h 80% 0 mm 341 W/m2
13:00 11.9 °C 8.4 °C 1017.8 hPa West 11.3 km/h 20.9 km/h 79% 0 mm 349 W/m2
13:10 12.2 °C 8.7 °C 1017.8 hPa WSW 11.3 km/h 19.3 km/h 79% 0 mm 579 W/m2
13:20 12.4 °C 8.7 °C 1017.8 hPa West 11.3 km/h 19.3 km/h 78% 0 mm 436 W/m2
13:30 12.4 °C 8.7 °C 1017.8 hPa WSW 8 km/h 16.1 km/h 78% 0 mm 319 W/m2
13:40 12.5 °C 8.8 °C 1017.8 hPa WSW 12.9 km/h 14.5 km/h 78% 0 mm 546 W/m2
13:50 12.7 °C 8.6 °C 1017.8 hPa West 9.7 km/h 17.7 km/h 76% 0 mm 300 W/m2
14:00 12.5 °C 8.2 °C 1017.8 hPa West 9.7 km/h 22.5 km/h 75% 0 mm 226 W/m2
14:10 12.3 °C 8.2 °C 1017.8 hPa West 9.7 km/h 22.5 km/h 76% 0 mm 242 W/m2
14:20 12.1 °C 8.2 °C 1017.8 hPa West 11.3 km/h 20.9 km/h 77% 0 mm 256 W/m2
14:30 12.1 °C 8.2 °C 1017.8 hPa West 8 km/h 19.3 km/h 77% 0 mm 362 W/m2
14:40 12.3 °C 8.1 °C 1017.8 hPa West 9.7 km/h 16.1 km/h 75% 0 mm 442 W/m2
14:50 12.6 °C 8.1 °C 1017.8 hPa West 8 km/h 16.1 km/h 74% 0 mm 290 W/m2
15:00 12.6 °C 8.1 °C 1017.8 hPa West 9.7 km/h 19.3 km/h 74% 0 mm 317 W/m2
15:10 12.6 °C 8.3 °C 1017.8 hPa West 9.7 km/h 19.3 km/h 75% 0 mm 175 W/m2
15:20 12.4 °C 8.3 °C 1017.8 hPa WNW 9.7 km/h 19.3 km/h 76% 0 mm 301 W/m2
15:30 12.3 °C 8.4 °C 1017.8 hPa WNW 9.7 km/h 19.3 km/h 77% 0 mm 175 W/m2
15:40 12.4 °C 8.1 °C 1018.2 hPa WNW 11.3 km/h 20.9 km/h 75% 0 mm 282 W/m2
15:50 12.5 °C 8 °C 1018.2 hPa WNW 9.7 km/h 20.9 km/h 74% 0 mm 272 W/m2
16:00 12.8 °C 8.5 °C 1018.2 hPa WNW 8 km/h 19.3 km/h 75% 0 mm 245 W/m2
16:10 12.9 °C 8.4 °C 1018.2 hPa WNW 11.3 km/h 17.7 km/h 74% 0 mm 218 W/m2
16:20 12.8 °C 8.5 °C 1018.2 hPa West 8 km/h 14.5 km/h 75% 0 mm 152 W/m2
16:30 12.6 °C 8.1 °C 1018.2 hPa WNW 8 km/h 19.3 km/h 74% 0 mm 111 W/m2
16:40 12.3 °C 7.9 °C 1018.2 hPa WNW 11.3 km/h 16.1 km/h 75% 0 mm 71 W/m2
16:50 11.8 °C 7.9 °C 1018.5 hPa West 8 km/h 19.3 km/h 77% 0 mm 65 W/m2
17:00 11.6 °C 7.9 °C 1018.5 hPa West 11.3 km/h 16.1 km/h 78% 0 mm 78 W/m2
17:10 11.4 °C 7.7 °C 1018.5 hPa WNW 4.8 km/h 17.7 km/h 78% 0 mm 41 W/m2
17:20 11.2 °C 7.7 °C 1018.5 hPa WNW 8 km/h 16.1 km/h 79% 0 mm 39 W/m2
17:30 11.1 °C 7.8 °C 1018.5 hPa West 9.7 km/h 14.5 km/h 80% 0 mm 22 W/m2
17:40 10.9 °C 7.6 °C 1018.8 hPa West 8 km/h 11.3 km/h 80% 0 mm 5 W/m2
17:50 10.7 °C 7.4 °C 1018.8 hPa West 8 km/h 12.9 km/h 80% 0 mm 4 W/m2
18:00 10.4 °C 7.2 °C 1019.2 hPa West 3.2 km/h 12.9 km/h 80% 0 mm 0 W/m2
18:10 10.3 °C 7.2 °C 1019.2 hPa SSW 1.6 km/h 6.4 km/h 81% 0 mm 0 W/m2
18:20 10.1 °C 7.3 °C 1019.2 hPa SW 1.6 km/h 6.4 km/h 83% 0 mm 0 W/m2
18:30 9.9 °C 7.2 °C 1019.5 hPa SW 1.6 km/h 3.2 km/h 83% 0 mm 0 W/m2
18:40 9.7 °C 7.1 °C 1019.9 hPa West 1.6 km/h 6.4 km/h 84% 0 mm 0 W/m2
18:50 9.5 °C 7.1 °C 1019.9 hPa SW 1.6 km/h 3.2 km/h 85% 0 mm 0 W/m2
19:00 9.3 °C 6.9 °C 1019.9 hPa Calm   3.2 km/h 85% 0 mm 0 W/m2
19:10 9.2 °C 7 °C 1020.2 hPa SE 3.2 km/h 6.4 km/h 86% 0 mm 0 W/m2
19:20 9 °C 6.8 °C 1020.2 hPa SE 1.6 km/h 4.8 km/h 86% 0 mm 0 W/m2
19:30 8.8 °C 6.9 °C 1020.2 hPa Calm   3.2 km/h 88% 0 mm 0 W/m2
19:40 8.7 °C 6.8 °C 1020.2 hPa SSE 3.2 km/h 4.8 km/h 88% 0 mm 0 W/m2
19:50 8.4 °C 6.7 °C 1020.5 hPa NNE 3.2 km/h 4.8 km/h 89% 0 mm 0 W/m2
20:00 8.3 °C 6.6 °C 1020.5 hPa SSE 1.6 km/h 6.4 km/h 89% 0 mm 0 W/m2
20:10 8.1 °C 6.6 °C 1020.5 hPa Calm   6.4 km/h 90% 0 mm 0 W/m2
20:20 7.9 °C 6.3 °C 1020.9 hPa SSE 3.2 km/h 4.8 km/h 90% 0 mm 0 W/m2
20:30 7.8 °C 6.4 °C 1020.9 hPa Calm   3.2 km/h 91% 0 mm 0 W/m2
20:40 7.7 °C 6.3 °C 1020.9 hPa NNE 1.6 km/h 4.8 km/h 91% 0 mm 0 W/m2
20:50 7.6 °C 6.2 °C 1021.2 hPa Calm   6.4 km/h 91% 0 mm 0 W/m2
21:00 7.5 °C 6.4 °C 1021.2 hPa West 1.6 km/h 4.8 km/h 93% 0 mm 0 W/m2
21:10 7.3 °C 6.2 °C 1021.2 hPa West 3.2 km/h 6.4 km/h 93% 0 mm 0 W/m2
21:20 7.2 °C 6.2 °C 1021.2 hPa WSW 3.2 km/h 8 km/h 93% 0 mm 0 W/m2
21:30 7 °C 6.1 °C 1021.6 hPa WSW 3.2 km/h 8 km/h 94% 0 mm 0 W/m2
21:40 6.9 °C 6 °C 1021.6 hPa SW 1.6 km/h 8 km/h 94% 0 mm 0 W/m2
22:00 6.9 °C 6.1 °C 1021.6 hPa SSW 1.6 km/h 6.4 km/h 94% 0 mm 0 W/m2
22:10 6.9 °C 6 °C 1021.6 hPa North 1.6 km/h 3.2 km/h 94% 0 mm 0 W/m2
22:20 6.9 °C 6 °C 1021.9 hPa NE 3.2 km/h 4.8 km/h 94% 0 mm 0 W/m2
22:30 6.9 °C 6.2 °C 1021.9 hPa Calm   3.2 km/h 95% 0 mm 0 W/m2
22:40 6.8 °C 6.1 °C 1021.9 hPa Calm   3.2 km/h 95% 0 mm 0 W/m2
22:50 6.7 °C 5.9 °C 1021.9 hPa Calm   1.6 km/h 95% 0 mm 0 W/m2
23:00 6.7 °C 5.9 °C 1021.9 hPa Calm   4.8 km/h 95% 0 mm 0 W/m2
23:10 6.5 °C 5.8 °C 1021.9 hPa WSW 3.2 km/h 4.8 km/h 95% 0 mm 0 W/m2
23:20 6.4 °C 5.7 °C 1021.9 hPa Calm   3.2 km/h 95% 0 mm 0 W/m2
23:30 6.3 °C 5.6 °C 1022.2 hPa Calm   1.6 km/h 95% 0 mm 0 W/m2
23:40 6.3 °C 5.7 °C 1022.2 hPa ESE 3.2 km/h 3.2 km/h 96% 0 mm 0 W/m2
23:50 6.3 °C 5.7 °C 1022.2 hPa West 1.6 km/h 3.2 km/h 96% 0 mm 0 W/m2
Knjazevac, Serbia
Compliments of Weather Underground - 2 mb